Time;durP1;ratioP1;P1;durP2;ratioP2;P2;SDS_P1;SDS_P2;PMS_P1;PMS_P2;Temp;Humidity;BMP_temperature;BMP_pressure;BME280_temperature;BME280_humidity;BME280_pressure;Samples;Min_cycle;Max_cycle;Signal;HPM_P1;HPM_P2
2022/03/01 00:00:39;;;;;;;19.33;11.50;;;;;;;;;;5054542;28;20112;-63
2022/03/01 00:03:06;;;;;;;19.23;11.75;;;;;;;;;;5053675;28;20510;-63
2022/03/01 00:05:32;;;;;;;20.92;12.65;;;;;;;;;;5053097;28;20037;-63
2022/03/01 00:07:58;;;;;;;22.20;12.60;;;;;;;;;;5054036;28;20044;-63
2022/03/01 00:10:24;;;;;;;22.35;11.95;;;;;;;;;;5054057;28;20040;-63
2022/03/01 00:12:50;;;;;;;21.85;11.98;;;;;;;;;;5053571;28;20483;-63
2022/03/01 00:15:16;;;;;;;18.00;11.55;;;;;;;;;;5053657;28;20044;-61
2022/03/01 00:17:42;;;;;;;17.98;11.13;;;;;;;;;;5054150;28;20106;-62
2022/03/01 00:20:08;;;;;;;18.88;11.30;;;;;;;;;;5054264;28;20120;-61
2022/03/01 00:22:34;;;;;;;17.70;11.43;;;;;;;;;;5053637;28;20090;-62
2022/03/01 00:25:00;;;;;;;16.95;11.30;;;;;;;;;;5053704;28;20037;-61
2022/03/01 00:27:26;;;;;;;20.60;12.40;;;;;;;;;;5035535;28;20037;-62
2022/03/01 00:29:52;;;;;;;18.95;11.85;;;;;;;;;;5036082;28;20559;-61
2022/03/01 00:32:18;;;;;;;18.65;10.57;;;;;;;;;;5031517;28;20067;-62
2022/03/01 00:34:44;;;;;;;17.50;11.57;;;;;;;;;;5060951;28;20036;-62
2022/03/01 00:37:10;;;;;;;19.25;11.85;;;;;;;;;;5065092;28;20097;-62
2022/03/01 00:39:36;;;;;;;19.70;11.73;;;;;;;;;;5057197;28;20037;-62
2022/03/01 00:42:02;;;;;;;19.75;12.60;;;;;;;;;;5046352;28;20120;-62
2022/03/01 00:44:28;;;;;;;18.42;11.10;;;;;;;;;;5034197;28;20112;-62
2022/03/01 00:46:54;;;;;;;19.60;12.00;;;;;;;;;;5052379;28;20407;-62
2022/03/01 00:49:20;;;;;;;19.35;12.45;;;;;;;;;;5053452;28;20101;-62
2022/03/01 00:51:46;;;;;;;22.05;12.80;;;;;;;;;;5053067;28;20040;-62
2022/03/01 00:54:11;;;;;;;21.30;11.90;;;;;;;;;;5053504;28;20334;-62
2022/03/01 00:56:37;;;;;;;17.55;12.30;;;;;;;;;;5053079;28;20033;-62
2022/03/01 00:59:03;;;;;;;21.85;12.77;;;;;;;;;;5053470;28;20052;-62
2022/03/01 01:01:29;;;;;;;20.17;12.63;;;;;;;;;;5053570;28;20036;-62
2022/03/01 01:03:55;;;;;;;18.75;11.85;;;;;;;;;;5053106;28;20041;-62
2022/03/01 01:06:21;;;;;;;19.63;11.65;;;;;;;;;;5042303;28;20038;-62
2022/03/01 01:08:47;;;;;;;19.85;12.15;;;;;;;;;;5039933;28;20546;-62
2022/03/01 01:11:13;;;;;;;22.73;12.45;;;;;;;;;;5052430;28;20132;-62
2022/03/01 01:13:39;;;;;;;22.48;12.02;;;;;;;;;;5036360;28;20049;-62
2022/03/01 01:16:05;;;;;;;19.08;12.15;;;;;;;;;;5050045;28;20040;-62
2022/03/01 01:18:31;;;;;;;19.15;11.48;;;;;;;;;;5034999;28;20083;-62
2022/03/01 01:20:58;;;;;;;20.83;12.40;;;;;;;;;;5052824;28;20048;-63
2022/03/01 01:23:23;;;;;;;21.25;12.02;;;;;;;;;;5052186;28;20068;-63
2022/03/01 01:25:49;;;;;;;21.17;12.27;;;;;;;;;;5053007;28;20087;-62
2022/03/01 01:28:15;;;;;;;21.95;11.88;;;;;;;;;;5052815;28;20078;-62
2022/03/01 01:30:41;;;;;;;21.30;11.45;;;;;;;;;;5051638;28;20074;-63
2022/03/01 01:33:07;;;;;;;19.02;11.20;;;;;;;;;;5052763;28;20033;-63
2022/03/01 01:35:34;;;;;;;20.25;12.30;;;;;;;;;;5052372;28;20051;-62
2022/03/01 01:38:00;;;;;;;20.58;12.30;;;;;;;;;;5051885;28;20037;-63
2022/03/01 01:40:28;;;;;;;19.05;12.20;;;;;;;;;;5053228;28;20124;-62
2022/03/01 01:42:54;;;;;;;21.05;13.35;;;;;;;;;;5051182;28;20112;-63
2022/03/01 01:45:21;;;;;;;22.38;12.93;;;;;;;;;;5050951;28;20040;-62
2022/03/01 01:47:48;;;;;;;24.70;13.00;;;;;;;;;;5051081;28;20040;-62
2022/03/01 01:50:14;;;;;;;22.63;12.52;;;;;;;;;;5052578;28;20135;-62
2022/03/01 01:52:40;;;;;;;20.02;11.90;;;;;;;;;;5034225;28;20517;-62
2022/03/01 01:55:06;;;;;;;21.30;12.68;;;;;;;;;;5051529;28;20064;-62
2022/03/01 01:57:32;;;;;;;21.23;12.65;;;;;;;;;;5016426;28;20427;-62
2022/03/01 02:00:00;;;;;;;21.52;12.80;;;;;;;;;;5052418;28;20041;-63
2022/03/01 02:02:26;;;;;;;22.17;13.00;;;;;;;;;;5051580;28;20423;-62
2022/03/01 02:04:52;;;;;;;20.35;12.70;;;;;;;;;;5051990;28;20040;-63
2022/03/01 02:07:18;;;;;;;24.33;13.88;;;;;;;;;;5052207;28;20437;-62
2022/03/01 02:09:44;;;;;;;22.42;13.95;;;;;;;;;;5052247;28;20136;-62
2022/03/01 02:12:11;;;;;;;20.63;12.82;;;;;;;;;;5032341;28;20045;-62
2022/03/01 02:14:38;;;;;;;20.40;12.80;;;;;;;;;;5051942;28;20045;-63
2022/03/01 02:17:05;;;;;;;23.70;12.93;;;;;;;;;;5038476;28;20044;-62
2022/03/01 02:19:31;;;;;;;19.10;12.45;;;;;;;;;;5043939;28;20095;-62
2022/03/01 02:21:58;;;;;;;24.50;12.68;;;;;;;;;;5051856;28;20098;-62
2022/03/01 02:24:25;;;;;;;20.25;12.35;;;;;;;;;;5017336;28;20048;-63
2022/03/01 02:26:58;;;;;;;21.90;12.35;;;;;;;;;;5050679;28;20283;-63
2022/03/01 02:29:25;;;;;;;20.02;12.57;;;;;;;;;;5051454;28;20047;-62
2022/03/01 02:31:51;;;;;;;18.30;11.98;;;;;;;;;;5034042;28;20502;-63
2022/03/01 02:34:18;;;;;;;23.50;13.13;;;;;;;;;;5034064;28;20449;-62
2022/03/01 02:36:44;;;;;;;26.05;13.50;;;;;;;;;;5051122;28;20091;-62
2022/03/01 02:39:10;;;;;;;22.88;13.57;;;;;;;;;;5033154;28;20044;-63
2022/03/01 02:41:39;;;;;;;23.90;13.95;;;;;;;;;;5017002;28;20472;-62
2022/03/01 02:44:06;;;;;;;21.60;12.80;;;;;;;;;;5032686;28;20044;-62
2022/03/01 02:46:32;;;;;;;25.45;13.65;;;;;;;;;;5051351;28;20410;-62
2022/03/01 02:48:57;;;;;;;19.73;12.70;;;;;;;;;;5032593;28;20049;-62
2022/03/01 02:51:23;;;;;;;22.38;13.27;;;;;;;;;;5051978;28;20045;-62
2022/03/01 02:53:49;;;;;;;22.65;13.43;;;;;;;;;;5049808;28;20127;-63
2022/03/01 02:56:15;;;;;;;22.52;13.60;;;;;;;;;;5033294;28;20056;-62
2022/03/01 02:58:41;;;;;;;23.08;13.63;;;;;;;;;;5050300;28;20556;-62
2022/03/01 03:01:08;;;;;;;22.02;12.73;;;;;;;;;;5038448;28;20032;-63
2022/03/01 03:03:34;;;;;;;22.20;13.38;;;;;;;;;;5050747;28;20037;-62
2022/03/01 03:06:00;;;;;;;23.85;13.38;;;;;;;;;;5049272;28;20056;-62
2022/03/01 03:08:26;;;;;;;22.63;13.23;;;;;;;;;;5049295;28;20056;-62
2022/03/01 03:10:52;;;;;;;23.45;13.35;;;;;;;;;;5051222;28;20116;-62
2022/03/01 03:13:19;;;;;;;25.50;13.60;;;;;;;;;;5032820;28;20501;-62
2022/03/01 03:15:45;;;;;;;24.50;14.38;;;;;;;;;;5050319;28;20044;-62
2022/03/01 03:18:11;;;;;;;25.55;14.32;;;;;;;;;;5050949;28;20540;-62
2022/03/01 03:20:37;;;;;;;24.25;13.55;;;;;;;;;;5051269;28;20123;-63
2022/03/01 03:23:03;;;;;;;23.40;12.63;;;;;;;;;;5051071;28;20087;-62
2022/03/01 03:25:29;;;;;;;21.77;12.85;;;;;;;;;;5051158;28;20091;-62
2022/03/01 03:27:55;;;;;;;20.98;12.45;;;;;;;;;;5032149;28;20041;-63
2022/03/01 03:30:21;;;;;;;23.95;13.20;;;;;;;;;;5049635;28;20067;-63
2022/03/01 03:32:47;;;;;;;24.67;14.02;;;;;;;;;;5035705;28;20049;-62
2022/03/01 03:35:13;;;;;;;23.50;14.20;;;;;;;;;;5054388;28;20098;-62
2022/03/01 03:37:39;;;;;;;22.60;13.50;;;;;;;;;;5054725;28;20033;-62
2022/03/01 03:40:06;;;;;;;22.20;13.52;;;;;;;;;;5036967;28;20043;-62
2022/03/01 03:42:32;;;;;;;23.40;13.85;;;;;;;;;;5054270;28;20048;-62
2022/03/01 03:44:58;;;;;;;21.88;13.43;;;;;;;;;;5054523;28;20037;-62
2022/03/01 03:47:24;;;;;;;23.83;13.82;;;;;;;;;;5055084;28;20403;-62
2022/03/01 03:49:50;;;;;;;27.58;14.02;;;;;;;;;;5054491;28;20072;-61
2022/03/01 03:52:16;;;;;;;23.65;13.85;;;;;;;;;;5034921;28;20494;-62
2022/03/01 03:54:42;;;;;;;24.33;13.80;;;;;;;;;;5053205;28;20041;-62
2022/03/01 03:57:08;;;;;;;25.83;14.38;;;;;;;;;;5054682;28;20517;-62
2022/03/01 03:59:37;;;;;;;25.85;14.18;;;;;;;;;;5054588;28;20041;-62
2022/03/01 04:02:04;;;;;;;24.05;14.18;;;;;;;;;;5054753;28;20033;-62
2022/03/01 04:04:30;;;;;;;25.67;13.73;;;;;;;;;;5035967;28;20040;-62
2022/03/01 04:06:56;;;;;;;23.30;14.05;;;;;;;;;;5028754;28;20038;-62
2022/03/01 04:09:22;;;;;;;24.27;15.05;;;;;;;;;;5033885;28;20056;-62
2022/03/01 04:11:48;;;;;;;26.15;14.40;;;;;;;;;;5045860;28;20045;-62
2022/03/01 04:14:14;;;;;;;23.55;14.40;;;;;;;;;;5052823;28;20048;-62
2022/03/01 04:16:42;;;;;;;24.65;14.10;;;;;;;;;;5053944;28;20372;-62
2022/03/01 04:19:11;;;;;;;23.85;13.95;;;;;;;;;;5054070;28;20445;-62
2022/03/01 04:21:37;;;;;;;25.63;14.35;;;;;;;;;;5053793;28;20032;-62
2022/03/01 04:24:04;;;;;;;24.95;14.35;;;;;;;;;;5052842;28;20072;-62
2022/03/01 04:26:30;;;;;;;23.38;15.00;;;;;;;;;;5053581;28;20070;-62
2022/03/01 04:28:56;;;;;;;24.77;15.27;;;;;;;;;;5054255;28;20037;-62
2022/03/01 04:31:22;;;;;;;24.52;14.05;;;;;;;;;;5054128;28;20067;-62
2022/03/01 04:33:48;;;;;;;24.90;14.38;;;;;;;;;;5052935;28;20087;-62
2022/03/01 04:36:15;;;;;;;25.38;15.65;;;;;;;;;;5053900;28;20048;-62
2022/03/01 04:38:41;;;;;;;23.95;14.20;;;;;;;;;;5053795;28;20437;-62
2022/03/01 04:41:07;;;;;;;24.33;13.77;;;;;;;;;;5053046;28;20045;-61
2022/03/01 04:43:33;;;;;;;23.90;14.02;;;;;;;;;;5053376;28;20029;-61
2022/03/01 04:45:59;;;;;;;27.75;15.52;;;;;;;;;;5053442;28;20119;-62
2022/03/01 04:48:25;;;;;;;23.58;14.23;;;;;;;;;;5050683;28;20033;-62
2022/03/01 04:50:52;;;;;;;23.02;13.73;;;;;;;;;;5053136;28;20052;-61
2022/03/01 04:53:18;;;;;;;25.02;14.90;;;;;;;;;;5053665;28;20068;-62
2022/03/01 04:55:44;;;;;;;24.70;14.77;;;;;;;;;;5051388;28;20072;-62
2022/03/01 04:58:10;;;;;;;25.05;14.50;;;;;;;;;;5050065;28;20375;-61
2022/03/01 05:00:36;;;;;;;25.30;14.20;;;;;;;;;;5054228;28;20033;-61
2022/03/01 05:03:03;;;;;;;23.40;14.07;;;;;;;;;;5048128;28;20175;-61
2022/03/01 05:05:29;;;;;;;27.17;14.50;;;;;;;;;;5090559;22;20064;-63
2022/03/01 05:07:55;;;;;;;26.05;14.18;;;;;;;;;;5092907;28;20043;-62
2022/03/01 05:10:21;;;;;;;25.50;14.93;;;;;;;;;;5092867;28;20094;-63
2022/03/01 05:12:52;;;;;;;27.38;14.68;;;;;;;;;;5092988;28;20044;-63
2022/03/01 05:15:19;;;;;;;26.63;15.07;;;;;;;;;;5107256;28;20031;-64
2022/03/01 05:17:45;;;;;;;26.63;14.55;;;;;;;;;;5113766;28;20076;-64
2022/03/01 05:20:12;;;;;;;23.85;14.70;;;;;;;;;;5113759;28;20039;-63
2022/03/01 05:22:38;;;;;;;25.13;14.43;;;;;;;;;;5113378;28;20542;-64
2022/03/01 05:25:05;;;;;;;26.05;14.70;;;;;;;;;;5113175;28;20039;-63
2022/03/01 05:27:31;;;;;;;24.75;15.05;;;;;;;;;;5113552;28;20110;-64
2022/03/01 05:29:57;;;;;;;28.80;15.10;;;;;;;;;;5113329;28;20071;-64
2022/03/01 05:32:23;;;;;;;26.02;14.77;;;;;;;;;;5112825;28;20445;-64
2022/03/01 05:34:49;;;;;;;24.90;13.90;;;;;;;;;;5112933;28;20106;-64
2022/03/01 05:37:15;;;;;;;26.63;14.55;;;;;;;;;;5113304;27;20115;-64
2022/03/01 05:39:41;;;;;;;26.83;15.68;;;;;;;;;;5113401;28;20040;-64
2022/03/01 05:42:08;;;;;;;26.02;14.85;;;;;;;;;;5112166;28;20032;-64
2022/03/01 05:44:34;;;;;;;26.55;15.15;;;;;;;;;;5111651;28;20512;-64
2022/03/01 05:47:00;;;;;;;25.95;15.02;;;;;;;;;;5112720;28;20035;-64
2022/03/01 05:49:26;;;;;;;27.75;15.10;;;;;;;;;;5113166;28;20040;-64
2022/03/01 05:51:52;;;;;;;25.92;15.75;;;;;;;;;;5111833;28;20032;-64
2022/03/01 05:54:19;;;;;;;25.35;14.85;;;;;;;;;;5113010;28;20039;-64
2022/03/01 05:56:45;;;;;;;26.42;14.73;;;;;;;;;;5112768;28;20044;-64
2022/03/01 05:59:11;;;;;;;23.60;14.73;;;;;;;;;;5112586;28;20049;-64
2022/03/01 06:01:37;;;;;;;26.85;15.57;;;;;;;;;;5112376;28;20035;-64
2022/03/01 06:04:03;;;;;;;25.30;14.77;;;;;;;;;;5111064;28;20089;-64
2022/03/01 06:06:29;;;;;;;26.88;14.57;;;;;;;;;;5100542;28;20037;-64
2022/03/01 06:08:55;;;;;;;28.90;16.35;;;;;;;;;;5111420;28;20057;-64
2022/03/01 06:11:21;;;;;;;26.15;14.98;;;;;;;;;;5111460;28;20055;-63
2022/03/01 06:13:47;;;;;;;25.92;15.25;;;;;;;;;;5112515;28;20039;-64
2022/03/01 06:16:13;;;;;;;26.38;15.73;;;;;;;;;;5111033;28;20043;-64
2022/03/01 06:18:38;;;;;;;25.67;15.68;;;;;;;;;;5110469;28;20130;-64
2022/03/01 06:21:05;;;;;;;29.67;15.98;;;;;;;;;;5111621;28;20040;-63
2022/03/01 06:23:32;;;;;;;29.17;16.05;;;;;;;;;;5112057;28;20119;-64
2022/03/01 06:25:58;;;;;;;27.35;15.93;;;;;;;;;;5107104;28;20045;-64
2022/03/01 06:28:24;;;;;;;25.23;14.45;;;;;;;;;;5107652;28;20039;-59
2022/03/01 06:30:50;;;;;;;28.33;16.42;;;;;;;;;;5109507;28;20285;-59
2022/03/01 06:33:18;;;;;;;26.40;15.25;;;;;;;;;;5108719;28;20054;-59
2022/03/01 06:35:44;;;;;;;27.75;15.85;;;;;;;;;;5103953;28;20400;-59
2022/03/01 06:38:10;;;;;;;33.05;16.10;;;;;;;;;;5112161;28;20039;-59
2022/03/01 06:40:36;;;;;;;28.10;17.42;;;;;;;;;;5111081;28;20035;-59
2022/03/01 06:43:02;;;;;;;26.35;14.93;;;;;;;;;;5095618;28;20508;-59
2022/03/01 06:45:28;;;;;;;28.02;16.23;;;;;;;;;;5097018;28;20039;-59
2022/03/01 06:47:54;;;;;;;29.70;16.02;;;;;;;;;;5103329;28;20081;-59
2022/03/01 06:50:20;;;;;;;27.95;16.40;;;;;;;;;;5103398;28;20126;-59
2022/03/01 06:52:47;;;;;;;29.33;15.30;;;;;;;;;;5112490;28;20071;-59
2022/03/01 06:55:13;;;;;;;24.98;15.13;;;;;;;;;;5110614;28;20096;-59
2022/03/01 06:57:40;;;;;;;28.90;15.48;;;;;;;;;;5111585;28;20051;-59
2022/03/01 07:00:06;;;;;;;29.48;16.35;;;;;;;;;;5111590;28;20408;-59
2022/03/01 07:02:38;;;;;;;28.42;16.33;;;;;;;;;;5107931;28;20511;-59
2022/03/01 07:05:04;;;;;;;29.83;17.30;;;;;;;;;;5104120;28;20082;-59
2022/03/01 07:07:30;;;;;;;29.92;17.42;;;;;;;;;;5108698;28;20495;-59
2022/03/01 07:09:56;;;;;;;29.15;16.17;;;;;;;;;;5099600;28;20040;-59
2022/03/01 07:12:22;;;;;;;26.90;16.23;;;;;;;;;;5096924;28;20040;-59
2022/03/01 07:14:48;;;;;;;32.00;17.42;;;;;;;;;;5105258;28;20481;-59
2022/03/01 07:17:16;;;;;;;30.20;16.90;;;;;;;;;;5111544;28;20052;-59
2022/03/01 07:19:42;;;;;;;28.60;15.75;;;;;;;;;;5109827;28;20031;-59
2022/03/01 07:22:08;;;;;;;25.65;15.98;;;;;;;;;;5106532;28;20042;-59
2022/03/01 07:24:34;;;;;;;26.13;14.93;;;;;;;;;;5102298;28;20043;-59
2022/03/01 07:27:00;;;;;;;27.25;15.68;;;;;;;;;;5107714;28;20039;-59
2022/03/01 07:29:27;;;;;;;28.02;15.52;;;;;;;;;;5100455;28;20043;-59
2022/03/01 07:31:53;;;;;;;27.67;16.25;;;;;;;;;;5096082;28;20512;-59
2022/03/01 07:34:19;;;;;;;27.40;15.25;;;;;;;;;;5098499;28;20031;-59
2022/03/01 07:36:45;;;;;;;30.33;16.25;;;;;;;;;;5103759;28;20036;-59
2022/03/01 07:39:11;;;;;;;28.48;16.67;;;;;;;;;;5108276;28;20044;-59
2022/03/01 07:41:37;;;;;;;27.00;15.95;;;;;;;;;;5098649;28;20059;-59
2022/03/01 07:44:03;;;;;;;27.13;15.85;;;;;;;;;;5105233;28;20047;-59
2022/03/01 07:46:29;;;;;;;30.08;16.25;;;;;;;;;;5105929;28;20063;-59
2022/03/01 07:48:55;;;;;;;33.45;17.10;;;;;;;;;;5100166;28;20036;-59
2022/03/01 07:51:21;;;;;;;26.80;16.08;;;;;;;;;;5101597;28;20036;-59
2022/03/01 07:53:47;;;;;;;28.05;16.65;;;;;;;;;;5102084;28;20043;-59
2022/03/01 07:56:14;;;;;;;26.83;15.95;;;;;;;;;;5105609;28;20719;-60
2022/03/01 07:58:40;;;;;;;31.23;16.80;;;;;;;;;;5104683;28;20042;-59
2022/03/01 08:01:06;;;;;;;29.90;16.25;;;;;;;;;;5105006;28;20047;-59
2022/03/01 08:03:32;;;;;;;30.95;16.70;;;;;;;;;;5105188;28;20485;-59
2022/03/01 08:05:58;;;;;;;30.27;16.17;;;;;;;;;;5105308;27;20046;-59
2022/03/01 08:08:24;;;;;;;31.05;16.52;;;;;;;;;;5106963;28;20484;-59
2022/03/01 08:10:52;;;;;;;31.88;17.02;;;;;;;;;;5104072;28;20038;-59
2022/03/01 08:13:18;;;;;;;27.95;16.25;;;;;;;;;;5104376;28;20112;-59
2022/03/01 08:15:44;;;;;;;26.45;15.88;;;;;;;;;;5101157;28;20552;-59
2022/03/01 08:18:10;;;;;;;29.63;17.65;;;;;;;;;;5105285;28;20565;-59
2022/03/01 08:20:36;;;;;;;27.08;16.42;;;;;;;;;;5109672;28;20038;-59
2022/03/01 08:23:02;;;;;;;28.10;15.23;;;;;;;;;;5107962;28;20047;-59
2022/03/01 08:25:28;;;;;;;24.58;14.95;;;;;;;;;;5107660;27;20565;-60
2022/03/01 08:27:56;;;;;;;29.13;16.83;;;;;;;;;;5120207;27;20062;-60
2022/03/01 08:30:22;;;;;;;26.75;16.08;;;;;;;;;;5106700;28;20036;-59
2022/03/01 08:32:49;;;;;;;26.50;15.68;;;;;;;;;;5111264;27;20114;-59
2022/03/01 08:35:15;;;;;;;27.52;15.77;;;;;;;;;;5095168;28;20144;-60
2022/03/01 08:37:41;;;;;;;29.67;15.98;;;;;;;;;;5094396;28;20101;-60
2022/03/01 08:40:07;;;;;;;26.92;15.90;;;;;;;;;;5114336;28;20043;-60
2022/03/01 08:42:33;;;;;;;26.67;16.85;;;;;;;;;;5110646;28;20485;-60
2022/03/01 08:44:59;;;;;;;28.58;15.93;;;;;;;;;;5114542;28;20045;-60
2022/03/01 08:47:26;;;;;;;27.02;16.08;;;;;;;;;;5113407;28;20123;-60
2022/03/01 08:49:52;;;;;;;26.02;16.02;;;;;;;;;;5114840;28;20114;-60
2022/03/01 08:52:18;;;;;;;25.85;14.40;;;;;;;;;;5113819;28;20463;-60
2022/03/01 08:54:44;;;;;;;26.98;15.38;;;;;;;;;;5113464;28;20059;-60
2022/03/01 08:57:11;;;;;;;24.67;14.88;;;;;;;;;;5113162;27;20061;-60
2022/03/01 08:59:36;;;;;;;27.63;15.93;;;;;;;;;;5113950;28;20493;-60
2022/03/01 09:02:03;;;;;;;25.65;14.80;;;;;;;;;;5113570;28;20046;-60
2022/03/01 09:04:29;;;;;;;26.88;16.08;;;;;;;;;;5113820;28;20082;-60
2022/03/01 09:06:55;;;;;;;25.65;14.23;;;;;;;;;;5113921;28;20059;-60
2022/03/01 09:09:21;;;;;;;27.00;15.60;;;;;;;;;;5111036;28;20093;-60
2022/03/01 09:11:47;;;;;;;28.77;16.13;;;;;;;;;;5098145;28;20050;-60
2022/03/01 09:14:13;;;;;;;25.63;15.68;;;;;;;;;;5107259;28;20043;-60
2022/03/01 09:16:39;;;;;;;25.23;15.13;;;;;;;;;;5110833;28;20114;-60
2022/03/01 09:19:05;;;;;;;25.48;15.20;;;;;;;;;;5113463;28;20581;-60
2022/03/01 09:21:31;;;;;;;26.98;16.10;;;;;;;;;;5109797;28;20119;-60
2022/03/01 09:23:57;;;;;;;26.27;16.20;;;;;;;;;;5112804;28;20036;-59
2022/03/01 09:26:24;;;;;;;27.30;15.30;;;;;;;;;;5103378;28;20036;-60
2022/03/01 09:28:50;;;;;;;27.75;15.95;;;;;;;;;;5105954;28;20110;-60
2022/03/01 09:31:16;;;;;;;27.33;16.30;;;;;;;;;;5109759;28;20039;-60
2022/03/01 09:33:45;;;;;;;26.60;16.33;;;;;;;;;;5109454;28;20032;-60
2022/03/01 09:36:11;;;;;;;26.42;15.93;;;;;;;;;;5112919;28;20043;-60
2022/03/01 09:38:37;;;;;;;27.92;15.88;;;;;;;;;;5110104;28;20035;-60
2022/03/01 09:41:04;;;;;;;25.73;14.77;;;;;;;;;;5109638;28;20122;-60
2022/03/01 09:43:29;;;;;;;25.50;15.82;;;;;;;;;;5112866;28;20032;-60
2022/03/01 09:45:55;;;;;;;25.58;14.20;;;;;;;;;;5094714;28;20040;-60
2022/03/01 09:48:21;;;;;;;24.23;13.07;;;;;;;;;;5092632;28;20394;-60
2022/03/01 09:50:48;;;;;;;26.55;13.48;;;;;;;;;;5105621;28;20108;-59
2022/03/01 09:53:14;;;;;;;21.98;14.13;;;;;;;;;;5112268;28;20035;-60
2022/03/01 09:55:40;;;;;;;25.73;14.98;;;;;;;;;;5112785;28;20477;-60
2022/03/01 09:58:07;;;;;;;23.98;14.30;;;;;;;;;;5103136;28;20040;-60
2022/03/01 10:00:33;;;;;;;24.67;14.77;;;;;;;;;;5103398;28;20032;-60
2022/03/01 10:02:59;;;;;;;23.00;13.65;;;;;;;;;;5093650;28;20046;-60
2022/03/01 10:05:36;;;;;;;20.77;12.25;;;;;;;;;;5103425;28;20062;-60
2022/03/01 10:08:08;;;;;;;20.52;12.80;;;;;;;;;;5111603;28;20043;-60
2022/03/01 10:10:53;;;;;;;20.67;13.63;;;;;;;;;;5112702;28;20100;-60
2022/03/01 10:13:24;;;;;;;21.08;12.75;;;;;;;;;;5108352;28;20039;-60
2022/03/01 10:15:50;;;;;;;;;;;;;;;;;;5109084;28;20486;-60
2022/03/01 10:18:16;;;;;;;22.98;14.05;;;;;;;;;;5109373;28;19961;-60
2022/03/01 10:20:45;;;;;;;20.15;13.32;;;;;;;;;;5111477;28;20040;-60
2022/03/01 10:23:11;;;;;;;23.55;13.23;;;;;;;;;;5111773;28;20071;-60
2022/03/01 10:25:39;;;;;;;23.90;14.38;;;;;;;;;;5109117;28;20031;-60
2022/03/01 10:28:05;;;;;;;23.25;14.00;;;;;;;;;;5103224;28;20466;-60
2022/03/01 10:30:33;;;;;;;22.25;12.75;;;;;;;;;;5101578;28;20032;-60
2022/03/01 10:33:05;;;;;;;22.77;13.63;;;;;;;;;;5111647;28;20047;-60
2022/03/01 10:35:31;;;;;;;20.60;13.32;;;;;;;;;;5105144;28;20035;-60
2022/03/01 10:37:57;;;;;;;21.50;13.32;;;;;;;;;;5106030;28;20054;-59
2022/03/01 10:40:24;;;;;;;23.67;13.95;;;;;;;;;;5109780;28;20427;-60
2022/03/01 10:43:09;;;;;;;22.40;13.50;;;;;;;;;;5095469;28;20497;-60
2022/03/01 10:45:43;;;;;;;23.98;12.65;;;;;;;;;;5096906;28;20379;-60
2022/03/01 10:48:11;;;;;;;20.98;12.90;;;;;;;;;;5105361;28;20070;-59
2022/03/01 10:50:38;;;;;;;20.63;13.25;;;;;;;;;;5111553;28;20046;-60
2022/03/01 10:53:05;;;;;;;20.27;13.15;;;;;;;;;;5106838;28;20067;-60
2022/03/01 10:55:33;;;;;;;21.23;13.27;;;;;;;;;;5105473;28;20122;-59
2022/03/01 10:58:03;;;;;;;25.63;14.48;;;;;;;;;;5101431;28;20047;-59
2022/03/01 11:00:31;;;;;;;20.83;13.30;;;;;;;;;;5104012;28;20052;-59
2022/03/01 11:02:57;;;;;;;24.65;14.25;;;;;;;;;;5101727;28;20043;-59
2022/03/01 11:05:23;;;;;;;19.65;12.65;;;;;;;;;;5102143;22;20123;-60
2022/03/01 11:07:51;;;;;;;20.83;13.60;;;;;;;;;;5070627;28;20083;-60
2022/03/01 11:10:17;;;;;;;19.48;13.02;;;;;;;;;;5071200;28;20482;-60
2022/03/01 11:12:44;;;;;;;21.02;13.63;;;;;;;;;;5049608;28;20055;-60
2022/03/01 11:15:19;;;;;;;22.52;13.98;;;;;;;;;;5079338;28;20039;-60
2022/03/01 11:17:51;;;;;;;21.60;13.95;;;;;;;;;;5081457;28;20070;-60
2022/03/01 11:20:23;;;;;;;24.98;14.32;;;;;;;;;;5091183;28;20071;-60
2022/03/01 11:23:00;;;;;;;19.85;13.15;;;;;;;;;;5088570;28;20071;-60
2022/03/01 11:25:30;;;;;;;22.35;14.93;;;;;;;;;;5086179;28;20036;-60
2022/03/01 11:28:00;;;;;;;20.13;13.47;;;;;;;;;;5067113;28;20036;-60
2022/03/01 11:30:33;;;;;;;22.17;13.17;;;;;;;;;;5086368;28;20036;-60
2022/03/01 11:32:59;;;;;;;24.45;14.18;;;;;;;;;;5089635;28;20047;-60
2022/03/01 11:35:29;;;;;;;21.45;13.35;;;;;;;;;;5090939;28;20410;-60
2022/03/01 11:38:12;;;;;;;19.50;12.75;;;;;;;;;;5088527;28;20082;-60
2022/03/01 11:40:38;;;;;;;22.58;13.43;;;;;;;;;;5073397;28;20046;-60
2022/03/01 11:43:13;;;;;;;21.48;13.63;;;;;;;;;;5078458;28;20440;-60
2022/03/01 11:45:39;;;;;;;23.13;13.50;;;;;;;;;;5086011;28;20541;-60
2022/03/01 11:48:07;;;;;;;22.70;13.50;;;;;;;;;;5086772;28;20036;-61
2022/03/01 11:50:33;;;;;;;21.30;13.38;;;;;;;;;;5085835;28;20040;-60
2022/03/01 11:53:07;;;;;;;22.20;14.00;;;;;;;;;;5089703;28;20040;-60
2022/03/01 11:55:35;;;;;;;22.98;14.55;;;;;;;;;;5089128;28;20093;-60
2022/03/01 11:58:01;;;;;;;24.52;14.48;;;;;;;;;;5090045;28;20056;-60
2022/03/01 12:00:28;;;;;;;24.33;13.95;;;;;;;;;;5085174;28;20671;-60
2022/03/01 12:02:58;;;;;;;24.42;14.40;;;;;;;;;;5088092;28;20119;-60
2022/03/01 12:05:24;;;;;;;19.25;13.20;;;;;;;;;;5082616;28;20047;-60
2022/03/01 12:07:53;;;;;;;22.60;13.45;;;;;;;;;;5084235;28;20512;-60
2022/03/01 12:10:21;;;;;;;24.30;13.80;;;;;;;;;;5085190;28;20425;-60
2022/03/01 12:12:47;;;;;;;23.35;14.05;;;;;;;;;;5082895;28;20040;-60
2022/03/01 12:15:16;;;;;;;24.00;14.27;;;;;;;;;;5085685;28;20107;-60
2022/03/01 12:17:46;;;;;;;21.35;12.65;;;;;;;;;;5086579;28;20409;-60
2022/03/01 12:20:13;;;;;;;22.50;14.27;;;;;;;;;;5077884;28;20493;-59
2022/03/01 12:22:50;;;;;;;26.33;14.95;;;;;;;;;;5082601;28;20445;-60
2022/03/01 12:25:16;;;;;;;22.02;13.30;;;;;;;;;;5083794;28;20074;-59
2022/03/01 12:27:43;;;;;;;23.63;13.60;;;;;;;;;;5066501;28;20063;-60
2022/03/01 12:30:10;;;;;;;19.35;13.30;;;;;;;;;;5086795;28;20052;-60
2022/03/01 12:32:37;;;;;;;22.48;13.73;;;;;;;;;;5081091;28;20032;-60
2022/03/01 12:35:03;;;;;;;22.60;14.30;;;;;;;;;;5086131;28;20036;-60
2022/03/01 12:37:30;;;;;;;24.38;14.88;;;;;;;;;;5082196;28;20037;-60
2022/03/01 12:39:56;;;;;;;19.42;12.98;;;;;;;;;;5084853;28;20107;-60
2022/03/01 12:42:27;;;;;;;19.30;12.93;;;;;;;;;;5085943;28;20036;-60
2022/03/01 12:44:54;;;;;;;21.55;13.95;;;;;;;;;;5085983;28;20039;-60
2022/03/01 12:47:19;;;;;;;27.15;13.77;;;;;;;;;;5084500;28;20165;-60
2022/03/01 12:49:45;;;;;;;22.58;14.50;;;;;;;;;;5092453;28;20071;-60
2022/03/01 12:52:17;;;;;;;24.08;14.35;;;;;;;;;;5093073;28;20051;-59
2022/03/01 12:54:44;;;;;;;;;;;;;;;;;;5093517;28;20042;-59
2022/03/01 12:57:13;;;;;;;21.60;13.60;;;;;;;;;;5088832;28;19974;-59
2022/03/01 12:59:40;;;;;;;21.05;13.63;;;;;;;;;;5089425;28;20093;-59
2022/03/01 13:02:07;;;;;;;24.45;14.98;;;;;;;;;;5091800;28;20050;-59
2022/03/01 13:04:37;;;;;;;23.80;14.00;;;;;;;;;;5085575;28;20028;-59
2022/03/01 13:07:03;;;;;;;22.88;13.50;;;;;;;;;;5082575;28;20093;-60
2022/03/01 13:09:30;;;;;;;21.02;13.40;;;;;;;;;;5085912;28;20063;-59
2022/03/01 13:11:56;;;;;;;23.13;13.90;;;;;;;;;;5090075;28;20032;-60
2022/03/01 13:14:22;;;;;;;22.85;14.43;;;;;;;;;;5087718;28;20040;-59
2022/03/01 13:16:52;;;;;;;22.83;13.55;;;;;;;;;;5092402;28;20043;-59
2022/03/01 13:19:20;;;;;;;19.95;12.93;;;;;;;;;;5088846;28;20397;-59
2022/03/01 13:21:51;;;;;;;22.48;13.68;;;;;;;;;;5085089;28;20075;-59
2022/03/01 13:24:24;;;;;;;22.98;13.65;;;;;;;;;;5084845;28;20069;-59
2022/03/01 13:26:50;;;;;;;22.63;13.95;;;;;;;;;;5093652;28;20492;-59
2022/03/01 13:29:18;;;;;;;19.63;12.65;;;;;;;;;;5092199;28;20077;-59
2022/03/01 13:31:45;;;;;;;22.35;13.32;;;;;;;;;;5074752;28;20051;-59
2022/03/01 13:34:13;;;;;;;24.73;13.52;;;;;;;;;;5092135;28;20091;-59
2022/03/01 13:36:40;;;;;;;23.25;13.80;;;;;;;;;;5080706;28;20043;-59
2022/03/01 13:39:11;;;;;;;21.23;13.25;;;;;;;;;;5092569;28;20075;-59
2022/03/01 13:41:38;;;;;;;21.08;13.80;;;;;;;;;;5092525;28;20032;-59
2022/03/01 13:44:15;;;;;;;22.58;13.73;;;;;;;;;;5092162;28;20043;-60
2022/03/01 13:46:52;;;;;;;24.35;13.85;;;;;;;;;;5092280;28;20760;-59
2022/03/01 13:49:24;;;;;;;24.35;14.10;;;;;;;;;;5091743;28;20565;-59
2022/03/01 13:51:49;;;;;;;22.10;13.88;;;;;;;;;;5087691;28;20044;-59
2022/03/01 13:54:15;;;;;;;22.73;13.75;;;;;;;;;;5091454;28;20036;-59
2022/03/01 13:56:47;;;;;;;25.67;14.88;;;;;;;;;;5092689;28;20040;-59
2022/03/01 13:59:19;;;;;;;22.88;14.30;;;;;;;;;;5091197;28;20133;-59
2022/03/01 14:01:48;;;;;;;21.88;14.27;;;;;;;;;;5089680;28;20571;-59
2022/03/01 14:04:14;;;;;;;21.25;14.43;;;;;;;;;;5091047;28;20024;-59
2022/03/01 14:06:50;;;;;;;23.52;14.23;;;;;;;;;;5091553;28;20500;-60
2022/03/01 14:09:16;;;;;;;24.58;14.00;;;;;;;;;;5089932;28;20046;-59
2022/03/01 14:11:51;;;;;;;22.80;14.85;;;;;;;;;;5091814;28;20405;-59
2022/03/01 14:14:17;;;;;;;25.77;14.73;;;;;;;;;;5091218;28;20164;-59
2022/03/01 14:16:43;;;;;;;22.48;13.75;;;;;;;;;;5090112;28;20081;-59